Time;durP1;ratioP1;P1;durP2;ratioP2;P2;SDS_P1;SDS_P2;PMS_P1;PMS_P2;Temp;Humidity;BMP_temperature;BMP_pressure;BME280_temperature;BME280_humidity;BME280_pressure;Samples;Min_cycle;Max_cycle;Signal;HPM_P1;HPM_P2
2024/01/26 00:09:15;;;;;;;;;;;8.70;99.90;;;;;;20864228;28;20380;-80
2024/01/26 00:19:16;;;;;;;;;;;8.60;99.90;;;;;;20861391;28;19928;-80
2024/01/26 00:29:16;;;;;;;;;;;8.50;99.90;;;;;;20860010;28;19913;-80
2024/01/26 00:39:17;;;;;;;;;;;8.50;99.90;;;;;;20855558;28;19928;-80
2024/01/26 00:49:18;;;;;;;;;;;8.50;99.90;;;;;;20857846;28;19984;-80
2024/01/26 00:59:18;;;;;;;;;;;8.40;99.90;;;;;;20858885;28;19917;-79
2024/01/26 01:09:19;;;;;;;;;;;8.30;99.90;;;;;;20854747;28;19980;-80
2024/01/26 01:19:20;;;;;;;;;;;8.20;99.90;;;;;;20856286;28;19999;-80
2024/01/26 01:29:20;;;;;;;;;;;8.00;99.90;;;;;;20854279;28;20356;-81
2024/01/26 01:39:21;;;;;;;;;;;8.20;99.90;;;;;;20853381;28;19917;-80
2024/01/26 01:49:22;;;;;;;;;;;8.30;99.90;;;;;;20855129;28;19920;-79
2024/01/26 01:59:23;;;;;;;;;;;8.10;99.90;;;;;;20856360;28;19917;-80
2024/01/26 02:09:24;;;;;;;;;;;8.10;99.90;;;;;;20856790;28;19959;-81
2024/01/26 02:19:25;;;;;;;;;;;8.00;99.90;;;;;;20848089;28;19917;-80
2024/01/26 02:29:26;;;;;;;;;;;8.00;99.90;;;;;;20851787;28;19917;-81
2024/01/26 02:39:28;;;;;;;;;;;8.00;99.90;;;;;;20857749;28;19960;-78
2024/01/26 02:49:29;;;;;;;;;;;8.00;99.90;;;;;;20853119;28;19920;-80
2024/01/26 02:59:30;;;;;;;;;;;7.90;99.90;;;;;;20851581;28;19917;-80
2024/01/26 03:09:31;;;;;;;;;;;7.80;99.90;;;;;;20850391;28;20398;-79
2024/01/26 03:19:35;;;;;;;;;;;7.60;99.90;;;;;;20845522;28;19917;-80
2024/01/26 03:29:35;;;;;;;;;;;7.70;99.90;;;;;;20855759;28;19949;-80
2024/01/26 03:39:36;;;;;;;;;;;7.70;99.90;;;;;;20851751;28;20394;-78
2024/01/26 03:49:40;;;;;;;;;;;7.80;99.90;;;;;;20851627;28;19919;-80
2024/01/26 03:59:41;;;;;;;;;;;7.60;99.90;;;;;;20816648;28;20376;-80
2024/01/26 04:09:42;;;;;;;;;;;7.60;99.90;;;;;;20857560;28;19917;-79
2024/01/26 04:19:42;;;;;;;;;;;7.30;99.90;;;;;;20875681;28;19916;-79
2024/01/26 04:29:43;;;;;;;;;;;7.40;99.90;;;;;;20820619;28;19927;-79
2024/01/26 04:39:43;;;;;;;;;;;7.50;99.90;;;;;;20855846;28;19920;-80
2024/01/26 04:49:44;;;;;;;;;;;7.40;99.90;;;;;;20852728;28;19913;-80
2024/01/26 04:59:45;;;;;;;;;;;7.50;99.90;;;;;;20860847;28;19963;-78
2024/01/26 05:09:45;;;;;;;;;;;7.50;99.90;;;;;;20852141;28;19939;-80
2024/01/26 05:19:46;;;;;;;;;;;7.40;99.90;;;;;;20830671;28;19983;-79
2024/01/26 05:29:47;;;;;;;;;;;7.30;99.90;;;;;;20822040;28;19995;-79
2024/01/26 05:39:47;;;;;;;;;;;7.30;99.90;;;;;;20846943;28;19923;-79
2024/01/26 05:49:50;;;;;;;;;;;7.10;99.90;;;;;;20851435;28;19955;-80
2024/01/26 05:59:51;;;;;;;;;;;7.10;99.90;;;;;;20835444;28;20372;-79
2024/01/26 06:09:51;;;;;;;;;;;7.10;99.90;;;;;;20840346;28;19920;-79
2024/01/26 06:19:52;;;;;;;;;;;7.10;99.90;;;;;;20846788;28;19917;-80
2024/01/26 06:29:52;;;;;;;;;;;6.90;99.90;;;;;;20854805;28;19947;-80
2024/01/26 06:39:55;;;;;;;;;;;6.80;99.90;;;;;;20849764;28;19924;-80
2024/01/26 06:49:55;;;;;;;;;;;6.70;99.90;;;;;;20842394;28;19913;-78
2024/01/26 06:59:56;;;;;;;;;;;6.50;99.90;;;;;;20841866;28;19971;-80
2024/01/26 07:09:57;;;;;;;;;;;6.20;99.90;;;;;;20832738;28;20375;-80
2024/01/26 07:19:57;;;;;;;;;;;6.20;99.90;;;;;;20850799;28;19925;-79
2024/01/26 07:29:58;;;;;;;;;;;6.20;99.90;;;;;;20864184;28;20468;-79
2024/01/26 07:40:01;;;;;;;;;;;6.30;99.90;;;;;;20821836;28;19924;-79
2024/01/26 07:50:02;;;;;;;;;;;6.60;99.90;;;;;;20857031;28;20036;-79
2024/01/26 08:00:04;;;;;;;;;;;6.70;99.90;;;;;;20856064;28;19928;-79
2024/01/26 08:10:05;;;;;;;;;;;6.90;99.90;;;;;;20849630;28;20380;-78
2024/01/26 08:20:07;;;;;;;;;;;7.10;99.90;;;;;;20860240;28;20590;-80
2024/01/26 08:30:09;;;;;;;;;;;7.30;99.90;;;;;;20851476;28;20378;-80
2024/01/26 08:40:10;;;;;;;;;;;7.40;99.90;;;;;;20871561;28;19917;-80
2024/01/26 08:50:11;;;;;;;;;;;7.50;99.90;;;;;;20854281;28;19913;-80
2024/01/26 09:00:12;;;;;;;;;;;7.60;99.90;;;;;;20843539;28;19917;-81
2024/01/26 09:10:13;;;;;;;;;;;7.90;99.90;;;;;;20860933;28;20304;-78
2024/01/26 09:20:14;;;;;;;;;;;8.20;99.90;;;;;;20873997;28;19924;-81
2024/01/26 09:30:15;;;;;;;;;;;8.50;99.90;;;;;;20852238;28;20008;-81
2024/01/26 09:40:16;;;;;;;;;;;8.60;99.90;;;;;;20848732;28;19959;-80
2024/01/26 09:50:18;;;;;;;;;;;8.80;99.90;;;;;;20862893;28;19924;-79
2024/01/26 10:00:20;;;;;;;;;;;8.80;99.90;;;;;;20865847;28;19917;-79
2024/01/26 10:10:21;;;;;;;;;;;9.10;99.90;;;;;;20859868;28;19913;-80
2024/01/26 10:20:21;;;;;;;;;;;9.40;99.90;;;;;;20861798;28;19905;-80
2024/01/26 10:30:22;;;;;;;;;;;9.50;99.90;;;;;;20886901;28;19999;-80
2024/01/26 10:40:24;;;;;;;;;;;9.60;99.90;;;;;;20877751;28;19921;-79
2024/01/26 10:50:25;;;;;;;;;;;9.70;99.90;;;;;;20873816;28;19913;-80
2024/01/26 11:00:25;;;;;;;;;;;9.80;99.90;;;;;;20881186;28;19972;-79
2024/01/26 11:10:29;;;;;;;;;;;10.10;99.90;;;;;;20873306;28;19924;-79
2024/01/26 11:20:30;;;;;;;;;;;10.00;99.90;;;;;;20877596;28;20375;-80
2024/01/26 11:30:31;;;;;;;;;;;10.00;99.90;;;;;;20875263;28;19913;-80
2024/01/26 11:40:32;;;;;;;;;;;9.80;99.90;;;;;;20871161;28;19917;-80
2024/01/26 11:50:33;;;;;;;;;;;9.80;99.90;;;;;;20867840;28;19913;-80
2024/01/26 12:00:36;;;;;;;;;;;9.80;99.90;;;;;;20852504;28;19925;-77
2024/01/26 12:10:37;;;;;;;;;;;9.70;99.90;;;;;;20857416;28;20299;-79
2024/01/26 12:20:38;;;;;;;;;;;9.60;99.90;;;;;;20864010;28;19920;-79
2024/01/26 12:30:39;;;;;;;;;;;9.60;99.90;;;;;;20861463;28;20265;-80
2024/01/26 12:40:39;;;;;;;;;;;9.60;99.90;;;;;;20864553;28;20291;-79
2024/01/26 12:50:40;;;;;;;;;;;9.60;99.90;;;;;;20862553;28;19920;-79
2024/01/26 13:00:41;;;;;;;;;;;9.60;99.90;;;;;;20843312;28;19921;-79
2024/01/26 13:10:41;;;;;;;;;;;9.60;99.90;;;;;;20854860;28;20012;-79
2024/01/26 13:20:42;;;;;;;;;;;9.50;99.90;;;;;;20862993;28;19943;-78
2024/01/26 13:30:43;;;;;;;;;;;9.60;99.90;;;;;;20866413;28;19913;-78
2024/01/26 13:40:44;;;;;;;;;;;9.50;99.90;;;;;;20828645;28;19976;-78
2024/01/26 13:50:45;;;;;;;;;;;9.50;99.90;;;;;;20851340;28;19936;-78
2024/01/26 14:00:45;;;;;;;;;;;9.60;99.90;;;;;;20847249;28;19921;-78
2024/01/26 14:10:46;;;;;;;;;;;9.50;99.90;;;;;;20849347;28;19913;-79
2024/01/26 14:20:47;;;;;;;;;;;9.60;99.90;;;;;;20819847;28;19921;-79
2024/01/26 14:30:47;;;;;;;;;;;9.60;99.90;;;;;;20834125;28;19913;-78
2024/01/26 14:40:48;;;;;;;;;;;9.60;99.90;;;;;;20845583;28;19970;-80
2024/01/26 14:50:49;;;;;;;;;;;9.60;99.90;;;;;;20837877;28;19913;-79
2024/01/26 15:00:49;;;;;;;;;;;9.60;99.90;;;;;;20830066;28;19963;-77
2024/01/26 15:10:50;;;;;;;;;;;9.80;99.90;;;;;;20880446;28;19913;-80
2024/01/26 15:20:51;;;;;;;;;;;9.90;99.90;;;;;;20923240;28;19924;-78
2024/01/26 15:30:51;;;;;;;;;;;9.90;99.90;;;;;;20883906;28;20047;-80
2024/01/26 15:40:52;;;;;;;;;;;9.90;99.90;;;;;;20904069;28;19918;-80
2024/01/26 15:50:53;;;;;;;;;;;9.80;99.90;;;;;;20899239;28;19913;-79
2024/01/26 16:00:54;;;;;;;;;;;9.80;99.90;;;;;;20883335;28;19963;-79
2024/01/26 16:10:56;;;;;;;;;;;9.70;99.90;;;;;;20867235;28;20401;-80
2024/01/26 16:20:57;;;;;;;;;;;9.60;99.90;;;;;;20857320;28;19928;-79
2024/01/26 16:30:58;;;;;;;;;;;9.50;99.90;;;;;;20865162;28;19916;-80
2024/01/26 16:40:58;;;;;;;;;;;9.50;99.90;;;;;;20851709;28;20022;-80
2024/01/26 16:51:01;;;;;;;;;;;9.50;99.90;;;;;;20856520;28;21645;-80
2024/01/26 17:01:01;;;;;;;;;;;9.60;99.90;;;;;;20840363;28;19917;-80
2024/01/26 17:11:02;;;;;;;;;;;9.70;99.90;;;;;;20844568;28;20365;-80
2024/01/26 17:21:05;;;;;;;;;;;9.80;99.90;;;;;;20822380;28;19924;-80
2024/01/26 17:31:07;;;;;;;;;;;9.80;99.90;;;;;;20822741;28;19913;-80
2024/01/26 17:41:07;;;;;;;;;;;9.80;99.90;;;;;;20819390;28;19921;-80
2024/01/26 17:51:08;;;;;;;;;;;9.70;99.90;;;;;;20817947;28;20368;-79
2024/01/26 18:01:09;;;;;;;;;;;9.70;99.90;;;;;;20823482;28;19924;-78
2024/01/26 18:11:09;;;;;;;;;;;9.70;99.90;;;;;;20847949;28;20040;-80
2024/01/26 18:21:10;;;;;;;;;;;9.70;99.90;;;;;;20804605;28;19925;-80
2024/01/26 18:31:11;;;;;;;;;;;9.70;99.90;;;;;;20842091;28;20385;-80
2024/01/26 18:41:21;;;;;;;;;;;9.70;99.90;;;;;;20839912;28;19924;-80
2024/01/26 18:51:22;;;;;;;;;;;9.70;99.90;;;;;;20845721;28;19936;-80
2024/01/26 19:01:23;;;;;;;;;;;9.70;99.90;;;;;;20851094;28;20398;-79
2024/01/26 19:11:24;;;;;;;;;;;9.60;99.90;;;;;;20854339;28;19948;-79
2024/01/26 19:21:25;;;;;;;;;;;9.60;99.90;;;;;;20872730;28;20354;-79
2024/01/26 19:31:26;;;;;;;;;;;9.60;99.90;;;;;;20857945;28;20384;-80
2024/01/26 19:41:27;;;;;;;;;;;9.50;99.90;;;;;;20871082;28;19924;-80
2024/01/26 19:51:27;;;;;;;;;;;9.40;99.90;;;;;;20858480;28;20284;-80
2024/01/26 20:01:28;;;;;;;;;;;9.30;99.90;;;;;;20854062;28;19917;-80
2024/01/26 20:11:28;;;;;;;;;;;9.20;99.90;;;;;;20838179;28;19913;-80
2024/01/26 20:21:29;;;;;;;;;;;9.00;99.90;;;;;;20843621;28;20287;-80
2024/01/26 20:31:30;;;;;;;;;;;8.80;99.90;;;;;;20876440;28;19913;-78
2024/01/26 20:41:32;;;;;;;;;;;8.70;99.90;;;;;;20878003;28;19917;-80
2024/01/26 20:51:33;;;;;;;;;;;8.80;99.90;;;;;;20875027;28;19920;-80
2024/01/26 21:01:34;;;;;;;;;;;8.70;99.90;;;;;;20876580;28;19917;-80
2024/01/26 21:11:35;;;;;;;;;;;8.60;99.90;;;;;;20854504;28;19920;-80
2024/01/26 21:21:35;;;;;;;;;;;8.40;99.90;;;;;;20840094;28;19931;-81
2024/01/26 21:31:36;;;;;;;;;;;8.30;99.90;;;;;;20835791;28;19921;-81
2024/01/26 21:41:36;;;;;;;;;;;8.10;99.90;;;;;;20846553;28;19996;-81
2024/01/26 21:51:37;;;;;;;;;;;8.00;99.90;;;;;;20837454;28;19917;-80
2024/01/26 22:01:38;;;;;;;;;;;7.80;99.90;;;;;;20817828;28;19936;-81
2024/01/26 22:11:38;;;;;;;;;;;7.60;99.90;;;;;;20817623;28;19921;-80
2024/01/26 22:21:39;;;;;;;;;;;7.30;99.90;;;;;;20848208;28;19925;-80
2024/01/26 22:31:40;;;;;;;;;;;7.10;99.90;;;;;;20854589;28;19913;-79
2024/01/26 22:41:41;;;;;;;;;;;6.90;99.90;;;;;;20852394;28;20055;-81
2024/01/26 22:51:42;;;;;;;;;;;6.50;99.90;;;;;;20836866;28;19913;-78
2024/01/26 23:01:45;;;;;;;;;;;6.40;99.90;;;;;;20849887;28;20394;-78
2024/01/26 23:11:45;;;;;;;;;;;5.90;99.90;;;;;;20847266;28;19939;-79
2024/01/26 23:21:46;;;;;;;;;;;5.60;99.90;;;;;;20846972;28;19976;-79
2024/01/26 23:31:46;;;;;;;;;;;5.80;99.90;;;;;;20818831;28;20064;-79
2024/01/26 23:41:48;;;;;;;;;;;5.20;99.90;;;;;;20850080;28;19924;-81
2024/01/26 23:51:49;;;;;;;;;;;4.90;99.90;;;;;;20841042;28;19920;-80
